Tuesday, May 31, 2016, 1:44 AM EDT

KGED, Georgetown Sussex Co Airport

Location: Georgetown, DE, United States Lat: 38.683
Local Time: 1:44 AM EDT ( 5:44 GMT) Lon: -75.367
Time Zone: US/Eastern Elev: 52 ft

Show me the last for .
Show Decoded

2016-05-31 00:54 METAR KGED 310454Z AUTO 21003KT 9SM BKN033 19/19 A2998 RMK AO2 SLP150 T01890189
                 402390189 =
2016-05-30 23:54 METAR KGED 310354Z AUTO 33005KT 10SM CLR 20/19 A2999 RMK AO2 SLP154 T02000194 =
2016-05-30 22:54 METAR KGED 310254Z AUTO 00000KT 10SM CLR 20/19 A2999 RMK AO2 SLP154 60001
                 T02000194 50001 =
2016-05-30 22:05 METAR KGED 310205Z AUTO 29005KT 10SM SCT005 SCT110 20/19 A3001 RMK AO2 T02000194
                 =
2016-05-30 21:54 METAR KGED 310154Z AUTO 14003KT 10SM FEW100 20/19 A3000 RMK AO2 RAE43 SLP157
                 P0000 T02000194 =
2016-05-30 20:54 METAR KGED 310054Z AUTO 19003KT 10SM -RA FEW120 21/19 A2999 RMK AO2 SLP155 P0001
                 T02060194 =
2016-05-30 19:54 METAR KGED 302354Z AUTO 23005KT 10SM -RA FEW007 SCT023 BKN120 21/20 A2999 RMK
                 AO2 SLP153 P0002 60021 T02110200 10228 20211 51004 =
2016-05-30 19:20 METAR KGED 302320Z AUTO 18006KT 10SM -RA SCT007 BKN020 OVC120 22/21 A2998 RMK
                 AO2 P0000 T02170206 =
2016-05-30 18:54 METAR KGED 302254Z AUTO 17007KT 10SM -RA BKN009 22/21 A2998 RMK AO2 CIG 005V010
                 SLP151 P0002 T02170206 =
2016-05-30 18:45 METAR KGED 302245Z AUTO 17005KT 10SM -RA SCT009 BKN041 22/21 A2998 RMK AO2 P0002
                 T02170211 =
2016-05-30 18:14 METAR KGED 302214Z AUTO 17006KT 10SM -RA SCT006 OVC013 22/21 A2999 RMK AO2 P0001
                 T02220211 =
2016-05-30 18:00 METAR KGED 302200Z AUTO 17005KT 9SM -RA BKN005 BKN011 OVC120 22/22 A2998 RMK AO2
                 CIG 004V010 P0001 T02220217 =
2016-05-30 17:54 METAR KGED 302154Z AUTO 17005KT 10SM -RA SCT007 SCT011 OVC120 22/21 A2998 RMK
                 AO2 SLP152 P0001 T02220211 =
2016-05-30 16:54 METAR KGED 302054Z AUTO 17007KT 5SM -RA BR FEW007 OVC100 23/22 A2997 RMK AO2
                 SLP149 P0004 60016 T02280217 58015 =
2016-05-30 16:23 METAR KGED 302023Z AUTO 15006KT 6SM -RA BR FEW006 SCT060 OVC095 22/22 A2998 RMK
                 AO2 P0002 T02220217 =
2016-05-30 15:54 METAR KGED 301954Z AUTO 15005KT 7SM -RA FEW013 BKN050 OVC070 23/22 A2999 RMK AO2
                 SLP155 P0002 T02280217 =
2016-05-30 15:45 METAR KGED 301945Z AUTO 16004KT 10SM -RA FEW008 SCT044 OVC055 23/22 A3000 RMK
                 AO2 P0001 T02280217 =
2016-05-30 15:17 METAR KGED 301917Z AUTO 18005KT 10SM -RA FEW006 BKN026 OVC055 23/22 A3000 RMK
                 AO2 P0000 T02280217 =
2016-05-30 15:10 METAR KGED 301910Z AUTO 16005KT 10SM -RA FEW008 SCT026 OVC055 23/22 A3000 RMK
                 AO2 P0000 T02280217 =
2016-05-30 14:54 METAR KGED 301854Z AUTO 14004KT 9SM -RA BKN026 OVC034 22/22 A3000 RMK AO2 SLP159
                 P0010 T02220217 =
2016-05-30 14:47 METAR KGED 301847Z AUTO 14005KT 7SM -RA FEW021 OVC028 22/21 A3001 RMK AO2 P0009
                 T02220211 =
2016-05-30 14:22 METAR KGED 301822Z AUTO 14003KT 5SM -RA BR FEW014 BKN039 OVC050 22/21 A3001 RMK
                 AO2 P0007 T02170206 =
2016-05-30 13:54 METAR KGED 301754Z AUTO 00000KT 2 1/2SM RA BR OVC055 22/21 A3002 RMK AO2 SLP163
                 P0031 60115 T02170206 10239 20211 50002 =
2016-05-30 13:31 METAR KGED 301731Z AUTO 00000KT 3SM RA BR FEW026 BKN044 OVC070 22/21 A3002 RMK
                 AO2 P0024 T02170206 =
2016-05-30 13:25 METAR KGED 301725Z AUTO 00000KT 1 1/2SM RA BR FEW026 BKN034 OVC043 21/21 A3002
                 RMK AO2 P0022 T02110206 =
2016-05-30 13:20 METAR KGED 301720Z AUTO 00000KT 1/2SM +RA FG SCT027 BKN035 OVC043 21/21 A3002
                 RMK AO2 P0021 T02110206 =
2016-05-30 13:08 METAR KGED 301708Z AUTO 00000KT 1SM RA BR SCT025 BKN035 OVC043 21/21 A3002 RMK
                 AO2 P0011 T02110206 =
2016-05-30 12:54 METAR KGED 301654Z AUTO 01003KT 1/4SM +RA FG FEW008 BKN019 OVC045 21/21 A3002
                 RMK AO2 SLP164 P0038 T02110206 =
2016-05-30 12:52 METAR KGED 301652Z AUTO 01003KT 1/4SM +RA FG SCT008 BKN017 OVC043 21/21 A3002
                 RMK AO2 P0034 =
2016-05-30 12:44 METAR KGED 301644Z AUTO 32004KT 3/4SM +RA BR BKN008 BKN017 OVC032 22/21 A3002
                 RMK AO2 CIG 005V010 P0015 T02220211 =
2016-05-30 12:41 METAR KGED 301641Z AUTO 30005KT 1 3/4SM RA BR BKN008 BKN017 OVC026 23/21 A3002
                 RMK AO2 CIG 005V013 P0008 T02280211 =
2016-05-30 12:20 METAR KGED 301620Z AUTO 19007KT 9SM -RA BKN006 BKN014 OVC047 24/23 A3001 RMK AO2
                 P0001 T02390228 =
2016-05-30 12:10 METAR KGED 301610Z AUTO 17007KT 7SM -RA BKN010 BKN023 OVC047 24/23 A3001 RMK AO2
                 P0001 T02390228 =
2016-05-30 12:03 METAR KGED 301603Z AUTO 17007KT 7SM -RA SCT008 BKN023 OVC060 24/23 A3001 RMK AO2
                 P0001 T02390228 =
2016-05-30 11:54 METAR KGED 301554Z AUTO 18006KT 7SM -RA BKN008 BKN021 OVC043 24/22 A3001 RMK AO2
                 CIG 005V015 SLP161 P0003 T02390222 =
2016-05-30 11:40 METAR KGED 301540Z AUTO 18007KT 10SM -RA OVC008 23/23 A3001 RMK AO2 CIG 004V012
                 P0001 T02330228 =
2016-05-30 11:05 METAR KGED 301505Z AUTO 20004KT 5SM -RA BR FEW005 BKN014 OVC023 23/22 A3002 RMK
                 AO2 P0001 T02330222 =
2016-05-30 10:54 METAR KGED 301454Z AUTO 19004KT 5SM -RA BR SCT008 BKN017 OVC032 23/22 A3002 RMK
                 AO2 SLP166 P0039 60043 T02330222 58002 =
2016-05-30 10:43 METAR KGED 301443Z AUTO 14003KT 3SM -RA BR FEW006 BKN020 OVC039 23/22 A3002 RMK
                 AO2 P0038 T02280222 =
2016-05-30 10:40 METAR KGED 301440Z AUTO 14004KT 1 1/4SM -RA BR FEW006 BKN022 OVC045 23/22 A3002
                 RMK AO2 P0038 T02330222 =
2016-05-30 10:26 METAR KGED 301426Z AUTO 16005KT 1/2SM +RA FG SCT008 BKN022 OVC040 23/22 A3003
                 RMK AO2 P0027 T02280222 =
2016-05-30 10:18 METAR KGED 301418Z AUTO VRB03KT 1/2SM RA FG BKN008 BKN019 OVC080 23/22 A3003 RMK
                 AO2 P0015 T02280222 =
2016-05-30 10:15 METAR KGED 301415Z AUTO 24004KT 1SM RA BR SCT006 BKN012 OVC025 23/22 A3003 RMK
                 AO2 P0007 T02280222 =
2016-05-30 10:09 METAR KGED 301409Z AUTO 24005KT 2SM -RA BR FEW006 BKN012 OVC025 23/22 A3003 RMK
                 AO2 P0004 T02330222 =
2016-05-30 10:07 METAR KGED 301407Z AUTO 22004KT 5SM -RA BR BKN009 OVC017 23/22 A3003 RMK AO2 CIG
                 005V012 P0001 T02330222 =
2016-05-30 09:54 METAR KGED 301354Z AUTO 19005KT 9SM -RA SCT007 BKN014 23/22 A3003 RMK AO2 SLP168
                 P0001 T02330222 =
2016-05-30 08:54 METAR KGED 301254Z AUTO 19003KT 10SM -RA BKN007 OVC075 23/22 A3003 RMK AO2
                 SLP167 P0003 T02280222 =
2016-05-30 08:38 METAR KGED 301238Z AUTO 20005KT 6SM -RA BR BKN007 BKN014 OVC075 23/22 A3002 RMK
                 AO2 P0002 T02280217 =
2016-05-30 08:31 METAR KGED 301231Z AUTO 21004KT 6SM -RA BR SCT008 BKN015 OVC095 23/22 A3003 RMK
                 AO2 P0002 T02280217 =
2016-05-30 08:23 METAR KGED 301223Z AUTO 20005KT 8SM -RA SCT008 BKN013 OVC075 23/22 A3003 RMK AO2
                 P0001 T02280217 =
2016-05-30 07:58 METAR KGED 301158Z AUTO 20005KT 9SM -RA BKN013 BKN075 OVC100 23/22 A3003 RMK AO2
                 P0000 T02280217 =
2016-05-30 07:54 METAR KGED 301154Z AUTO 20005KT 8SM -RA SCT013 BKN055 OVC095 23/22 A3003 RMK AO2
                 SLP167 P0003 60006 70006 T02280217 10233 20222 53007 =
2016-05-30 07:43 METAR KGED 301143Z AUTO 19004KT 5SM -RA BR FEW015 SCT031 OVC095 22/22 A3003 RMK
                 AO2 P0003 T02220217 =
2016-05-30 07:21 METAR KGED 301121Z AUTO 20006KT 10SM -RA SCT008 BKN023 BKN100 22/22 A3002 RMK
                 AO2 P0002 T02220217 =
2016-05-30 06:54 METAR KGED 301054Z AUTO 20005KT 3SM -RA BR BKN008 OVC021 23/22 A3002 RMK AO2
                 RAB47 CIG 005V011 SLP163 P0002 T02280217 =
2016-05-30 05:54 METAR KGED 300954Z AUTO 20006KT 10SM OVC008 23/22 A3001 RMK AO2 SLP160 T02280217
                 =
2016-05-30 05:09 METAR KGED 300909Z AUTO 20006KT 10SM OVC008 23/22 A3001 RMK AO2 CIG 007V012
                 T02280217 =
2016-05-30 04:54 METAR KGED 300854Z AUTO 21006KT 10SM BKN010 BKN017 OVC120 23/22 A3001 RMK AO2
                 RAE02B20E32 SLP160 P0000 60001 T02280217 55007 =
2016-05-30 04:49 METAR KGED 300849Z AUTO 20007KT 10SM SCT010 BKN017 BKN120 23/22 A3001 RMK AO2
                 RAE02B20E32 P0000 =
2016-05-30 04:34 METAR KGED 300834Z AUTO 21006KT 10SM SCT008 BKN120 23/22 A3000 RMK AO2
                 RAE02B20E32 P0000 T02280217 =
2016-05-30 04:07 METAR KGED 300807Z AUTO 19009KT 10SM BKN009 BKN055 23/22 A3000 RMK AO2 RAE02 CIG
                 007V011 P0000 T02280217 =
2016-05-30 03:54 METAR KGED 300754Z AUTO 20007KT 10SM -RA BKN010 BKN045 BKN055 23/22 A3001 RMK
                 AO2 RAB17 SLP160 P0001 T02280217 =
2016-05-30 03:36 METAR KGED 300736Z AUTO 18009KT 10SM -RA SCT009 BKN048 23/22 A3001 RMK AO2 RAB17
                 P0001 T02280217 =
2016-05-30 02:54 METAR KGED 300654Z AUTO 20008KT 10SM OVC009 23/22 A3003 RMK AO2 RAE23 SLP167
                 P0000 T02330217 =
2016-05-30 01:54 METAR KGED 300554Z AUTO 20008KT 10SM -RA OVC008 23/22 A3004 RMK AO2 RAB27 SLP170
                 P0000 60000 T02330217 10239 20228 56013 =

Support USWX by starting your Amazon purchase here.